Time;durP1;ratioP1;P1;durP2;ratioP2;P2;SDS_P1;SDS_P2;PMS_P1;PMS_P2;Temp;Humidity;BMP_temperature;BMP_pressure;BME280_temperature;BME280_humidity;BME280_pressure;Samples;Min_cycle;Max_cycle;Signal;HPM_P1;HPM_P2
2022/08/23 00:02:43;;;;;;;8.70;6.20;;;;;;;18.52;82.05;99889.47;130151;1270;107186;-79
2022/08/23 00:05:48;;;;;;;7.80;5.60;;;;;;;18.41;82.40;99891.27;130599;1267;109084;-79
2022/08/23 00:08:55;;;;;;;6.30;4.80;;;;;;;18.46;82.64;99904.63;130428;1267;107616;-80
2022/08/23 00:12:10;;;;;;;5.70;5.00;;;;;;;18.54;82.41;99911.25;130445;1267;107480;-81
2022/08/23 00:15:19;;;;;;;8.30;5.20;;;;;;;18.59;82.39;99912.30;130438;1267;108859;-81
2022/08/23 00:18:25;;;;;;;7.30;5.70;;;;;;;18.49;82.22;99909.48;130458;1267;108574;-79
2022/08/23 00:21:30;;;;;;;6.70;5.60;;;;;;;18.30;82.57;99906.27;130570;1267;107922;-80
2022/08/23 00:24:37;;;;;;;5.80;5.20;;;;;;;18.22;82.66;99908.06;130448;1267;108862;-80
2022/08/23 00:27:43;;;;;;;5.10;4.60;;;;;;;18.17;82.97;99916.80;130510;1267;108712;-80
2022/08/23 00:30:49;;;;;;;7.10;5.40;;;;;;;18.23;82.87;99919.49;130541;1267;108703;-79
2022/08/23 00:33:54;;;;;;;9.00;5.50;;;;;;;18.23;82.75;99921.48;130460;1267;108759;-80
2022/08/23 00:37:00;;;;;;;5.90;5.30;;;;;;;18.20;82.72;99924.73;130513;1267;108762;-80
2022/08/23 00:40:10;;;;;;;6.40;5.70;;;;;;;18.20;82.81;99929.09;130400;1268;108683;-80
2022/08/23 00:50:23;;;;;;;5.90;5.30;;;;;;;18.23;82.50;99955.14;130453;1267;108684;-79
2022/08/23 00:53:32;;;;;;;5.90;5.10;;;;;;;18.18;82.62;99953.69;130392;1267;108761;-79
2022/08/23 00:56:39;;;;;;;8.70;5.70;;;;;;;18.14;82.75;99962.04;130346;1268;108651;-80
2022/08/23 00:59:44;;;;;;;7.00;6.20;;;;;;;18.18;82.67;99961.17;130383;1267;108949;-78
2022/08/23 01:02:52;;;;;;;5.40;4.90;;;;;;;18.19;82.71;99965.96;130360;1267;108681;-80
2022/08/23 01:06:01;;;;;;;7.80;5.00;;;;;;;18.18;82.54;99972.52;130413;1267;107655;-81
2022/08/23 01:09:12;;;;;;;6.20;5.40;;;;;;;18.13;82.62;99966.65;130428;1267;107433;-80
2022/08/23 01:12:24;;;;;;;8.20;5.60;;;;;;;18.01;82.65;99959.57;130408;1267;108717;-80
2022/08/23 01:15:35;;;;;;;7.90;5.70;;;;;;;17.97;83.13;99952.64;130306;1267;109103;-79
2022/08/23 01:18:42;;;;;;;8.60;6.10;;;;;;;17.91;83.30;99936.11;130537;1268;108867;-79
2022/08/23 01:21:53;;;;;;;7.70;5.90;;;;;;;17.88;83.71;99929.89;130385;1267;108902;-80
2022/08/23 01:25:00;;;;;;;8.30;6.40;;;;;;;17.86;84.31;99921.63;130341;1268;108867;-79
2022/08/23 01:28:07;;;;;;;8.20;6.10;;;;;;;17.98;84.44;99928.60;130363;1268;107687;-79
2022/08/23 01:31:14;;;;;;;7.20;6.10;;;;;;;18.10;84.13;99924.50;130372;1268;108749;-78
2022/08/23 01:34:27;;;;;;;10.40;6.80;;;;;;;18.15;84.32;99923.16;130523;1266;108930;-78
2022/08/23 01:37:34;;;;;;;7.40;6.00;;;;;;;18.22;84.38;99924.27;130544;1267;108859;-79
2022/08/23 01:40:40;;;;;;;9.40;7.00;;;;;;;18.31;84.46;99922.17;130457;1267;108652;-80
2022/08/23 01:43:46;;;;;;;15.30;9.10;;;;;;;18.29;85.19;99914.27;130442;1268;108831;-81
2022/08/23 01:46:53;;;;;;;11.70;8.60;;;;;;;18.34;86.05;99910.73;130560;1266;108913;-78
2022/08/23 01:49:59;;;;;;;9.00;7.70;;;;;;;18.47;85.71;99917.64;130414;1268;108911;-81
2022/08/23 01:53:05;;;;;;;7.50;6.70;;;;;;;18.57;85.49;99919.47;130261;1267;108813;-79
2022/08/23 01:56:12;;;;;;;10.30;7.30;;;;;;;18.65;85.66;99919.14;130412;1268;108996;-80
2022/08/23 01:59:18;;;;;;;12.10;8.80;;;;;;;18.78;86.27;99921.42;130417;1268;108686;-80
2022/08/23 02:02:31;;;;;;;15.10;9.60;;;;;;;18.90;86.00;99921.64;130470;1268;108742;-79
2022/08/23 02:05:37;;;;;;;14.20;8.90;;;;;;;18.95;86.08;99909.01;130371;1268;109052;-79
2022/08/23 02:09:00;;;;;;;8.60;7.50;;;;;;;18.95;86.18;99902.48;130436;1268;108798;-82
2022/08/23 02:12:07;;;;;;;10.90;7.30;;;;;;;19.05;86.42;99896.23;130559;1268;108961;-82
2022/08/23 02:15:13;;;;;;;9.40;7.70;;;;;;;19.16;86.27;99908.67;130579;1267;109281;-82
2022/08/23 02:18:22;;;;;;;8.60;7.60;;;;;;;19.28;86.20;99918.05;130533;1268;108800;-84
2022/08/23 02:21:30;;;;;;;8.60;7.10;;;;;;;19.34;86.08;99924.91;130362;1268;108648;-83
2022/08/23 02:24:39;;;;;;;11.70;8.20;;;;;;;19.36;86.05;99931.42;130597;1268;108940;-85
2022/08/23 02:27:44;;;;;;;9.90;7.60;;;;;;;19.41;86.23;99930.23;130469;1268;108753;-83
2022/08/23 02:30:53;;;;;;;10.30;8.50;;;;;;;19.48;86.36;99927.48;130378;1268;108634;-84
2022/08/23 02:34:00;;;;;;;12.50;9.80;;;;;;;19.57;86.36;99923.08;130527;1267;108710;-81
2022/08/23 02:37:06;;;;;;;10.30;8.10;;;;;;;19.50;86.32;99911.31;130553;1268;107869;-81
2022/08/23 02:40:12;;;;;;;12.10;8.00;;;;;;;19.30;86.91;99913.20;130502;1268;108911;-79
2022/08/23 02:43:18;;;;;;;8.50;7.50;;;;;;;19.20;87.08;99916.71;130428;1268;109177;-80
2022/08/23 02:46:24;;;;;;;11.50;7.80;;;;;;;19.23;86.99;99921.07;130348;1267;108703;-80
2022/08/23 02:49:31;;;;;;;10.50;8.20;;;;;;;19.34;86.98;99916.34;130533;1267;108681;-79
2022/08/23 02:52:37;;;;;;;13.40;8.20;;;;;;;19.41;86.97;99916.83;130499;1268;108892;-78
2022/08/23 03:01:40;;;;;;;10.30;8.30;;;;;;;19.50;87.02;99917.60;125933;1312;635944;-84
2022/08/23 03:05:09;;;;;;;11.30;8.00;;;;;;;19.43;87.08;99912.91;129610;1281;108388;-84
2022/08/23 03:08:15;;;;;;;13.90;8.30;;;;;;;19.50;87.05;99913.07;129616;1281;108917;-85
2022/08/23 03:11:25;;;;;;;12.00;8.40;;;;;;;19.46;87.02;99913.14;133133;1281;108818;-85
2022/08/23 03:14:31;;;;;;;14.20;7.50;;;;;;;19.36;87.12;99925.40;129137;1280;1403905;-86
2022/08/23 03:17:38;;;;;;;10.50;7.40;;;;;;;19.44;87.34;99935.59;129869;1280;108787;-84
2022/08/23 03:20:47;;;;;;;9.50;7.60;;;;;;;19.55;87.29;99939.59;129502;1280;108657;-83
2022/08/23 03:23:53;;;;;;;12.60;7.10;;;;;;;19.61;87.24;99935.58;129604;1280;108753;-85
2022/08/23 03:26:59;;;;;;;9.60;7.80;;;;;;;19.66;87.18;99941.09;129445;1280;108771;-86
2022/08/23 03:30:05;;;;;;;9.50;7.70;;;;;;;19.75;87.16;99944.95;129247;1280;108528;-85
2022/08/23 03:33:12;;;;;;;11.40;8.10;;;;;;;19.80;87.01;99951.33;129431;1280;108698;-86
2022/08/23 03:36:19;;;;;;;17.50;8.90;;;;;;;19.82;87.11;99945.64;129173;1279;108149;-86
2022/08/23 03:39:26;;;;;;;8.40;6.60;;;;;;;19.72;87.06;99946.00;129282;1280;107630;-86
2022/08/23 03:42:33;;;;;;;10.80;8.50;;;;;;;19.72;87.32;99946.00;129376;1280;109140;-88
2022/08/23 03:45:39;;;;;;;14.00;9.90;;;;;;;19.76;87.51;99939.86;129101;1280;108956;-85
2022/08/23 03:48:45;;;;;;;13.30;10.30;;;;;;;19.68;87.59;99935.59;129363;1280;108972;-85
2022/08/23 03:51:51;;;;;;;11.00;7.80;;;;;;;19.63;87.62;99934.27;129291;1280;109007;-84
2022/08/23 03:54:57;;;;;;;8.90;7.30;;;;;;;19.72;87.61;99929.55;129276;1279;108905;-83
2022/08/23 03:58:03;;;;;;;12.70;8.70;;;;;;;19.84;87.43;99923.84;129445;1280;107664;-84
2022/08/23 04:01:09;;;;;;;14.90;9.60;;;;;;;19.92;87.48;99922.23;129406;1280;109199;-84
2022/08/23 04:04:14;;;;;;;11.30;9.20;;;;;;;19.91;87.62;99919.83;129401;1280;107726;-83
2022/08/23 04:07:32;;;;;;;10.40;7.80;;;;;;;20.01;87.52;99918.73;129291;1280;108770;-83
2022/08/23 04:10:38;;;;;;;13.20;8.70;;;;;;;20.08;87.28;99917.29;129282;1280;107632;-84
2022/08/23 04:13:43;;;;;;;12.70;8.50;;;;;;;20.01;87.39;99913.85;129335;1280;109095;-83
2022/08/23 04:16:50;;;;;;;12.80;8.90;;;;;;;20.04;87.64;99924.98;129240;1280;108742;-84
2022/08/23 04:19:56;;;;;;;9.10;8.10;;;;;;;20.18;87.58;99928.35;129102;1280;108990;-83
2022/08/23 04:23:02;;;;;;;13.30;7.80;;;;;;;20.32;87.42;99932.66;129084;1280;108887;-84
2022/08/23 04:26:10;;;;;;;12.00;9.00;;;;;;;20.40;87.19;99931.27;129210;1280;108970;-81
2022/08/23 04:29:17;;;;;;;16.30;9.60;;;;;;;20.44;87.13;99930.70;129272;1280;108746;-86
2022/08/23 04:32:23;;;;;;;11.90;9.40;;;;;;;20.49;87.14;99937.29;129323;1280;108769;-85
2022/08/23 04:35:29;;;;;;;11.80;9.00;;;;;;;20.58;87.16;99941.56;129333;1280;108694;-86
2022/08/23 04:38:34;;;;;;;14.00;8.90;;;;;;;20.67;87.08;99943.27;129199;1279;108707;-87
2022/08/23 04:45:08;;;;;;;10.20;8.00;;;;;;;20.82;86.96;99939.30;129367;1279;108791;-88
2022/08/23 04:48:14;;;;;;;12.10;9.90;;;;;;;20.91;86.80;99937.38;129497;1280;108995;-87
2022/08/23 04:51:22;;;;;;;9.90;8.80;;;;;;;20.97;86.69;99934.27;129292;1280;108191;-87
2022/08/23 04:54:28;;;;;;;13.30;9.30;;;;;;;21.00;86.75;99937.41;129330;1280;108789;-87
2022/08/23 04:57:53;;;;;;;10.30;8.50;;;;;;;21.04;86.62;99941.09;129321;1280;109146;-88
2022/08/23 05:12:46;;;;;;;11.20;8.60;;;;;;;21.57;86.41;99959.00;125697;1313;648832;-84
2022/08/23 05:15:53;;;;;;;11.30;9.50;;;;;;;21.87;86.19;99961.65;128975;1271;1552347;-88
2022/08/23 05:18:59;;;;;;;13.10;9.20;;;;;;;21.81;85.58;99969.31;130062;1271;108860;-87
2022/08/23 05:22:05;;;;;;;12.60;9.60;;;;;;;21.64;85.95;99975.26;130044;1271;108775;-87
2022/08/23 05:28:51;;;;;;;12.80;10.00;;;;;;;22.00;86.01;99979.73;130155;1271;107912;-84
2022/08/23 05:31:59;;;;;;;15.70;10.90;;;;;;;22.06;85.30;99975.99;130114;1271;108768;-82
2022/08/23 05:35:06;;;;;;;11.80;9.50;;;;;;;22.13;85.65;99973.02;129992;1271;107118;-83
2022/08/23 05:38:14;;;;;;;12.10;9.40;;;;;;;22.20;85.36;99971.08;130184;1271;108874;-82
2022/08/23 05:41:20;;;;;;;10.70;9.30;;;;;;;22.13;85.07;99966.05;129975;1271;108966;-81
2022/08/23 05:44:27;;;;;;;14.40;11.10;;;;;;;22.09;85.05;99965.80;130042;1271;108688;-81
2022/08/23 05:47:32;;;;;;;14.60;10.40;;;;;;;22.03;85.30;99963.55;129939;1271;108938;-81
2022/08/23 05:51:12;;;;;;;16.40;10.80;;;;;;;22.20;85.66;99965.80;130022;1271;108808;-81
2022/08/23 05:54:19;;;;;;;13.30;8.70;;;;;;;22.44;85.38;99972.77;129957;1271;108943;-83
2022/08/23 05:57:28;;;;;;;;;;;;;;;22.59;85.12;99974.30;130032;1271;108984;-83
2022/08/23 06:00:34;;;;;;;10.80;8.00;;;;;;;22.79;84.80;99976.99;130024;1271;108974;-82
2022/08/23 06:03:40;;;;;;;11.40;7.70;;;;;;;23.04;84.47;99982.96;130073;1271;109013;-82
2022/08/23 06:06:47;;;;;;;14.30;10.70;;;;;;;23.24;84.13;99985.95;129972;1271;108900;-82
2022/08/23 06:09:54;;;;;;;11.90;9.60;;;;;;;23.36;83.72;99986.02;130111;1271;107195;-83
2022/08/23 06:13:01;;;;;;;10.80;8.60;;;;;;;23.39;83.82;99984.91;130195;1271;109862;-82
2022/08/23 06:16:10;;;;;;;15.40;11.80;;;;;;;23.41;83.93;99989.27;130245;1271;108691;-83
2022/08/23 06:19:16;;;;;;;12.40;10.10;;;;;;;23.35;83.58;99992.59;130620;1274;108069;-82
2022/08/23 06:22:24;;;;;;;17.50;11.30;;;;;;;23.16;83.93;100000.35;129957;1273;108801;-82
2022/08/23 06:25:30;;;;;;;15.20;9.40;;;;;;;23.12;83.94;100004.90;130006;1274;108722;-81
2022/08/23 06:28:48;;;;;;;12.20;8.90;;;;;;;23.12;83.61;100009.95;129872;1273;108885;-82
2022/08/23 06:31:54;;;;;;;14.10;10.20;;;;;;;23.18;83.79;100011.85;129755;1274;108887;-82
2022/08/23 06:35:04;;;;;;;15.90;10.20;;;;;;;23.18;83.46;100019.48;129927;1271;108881;-81
2022/08/23 06:38:30;;;;;;;16.80;10.90;;;;;;;22.99;83.39;100024.73;129697;1271;108801;-81
2022/08/23 06:41:50;;;;;;;15.60;11.30;;;;;;;22.88;83.63;100023.36;129935;1271;109152;-82
2022/08/23 06:45:07;;;;;;;14.50;10.60;;;;;;;22.83;83.73;100028.23;129964;1271;108708;-81
2022/08/23 06:48:16;;;;;;;15.80;10.70;;;;;;;22.88;83.61;100033.11;129997;1272;108761;-81
2022/08/23 06:51:25;;;;;;;13.20;9.90;;;;;;;22.95;83.72;100031.34;129964;1272;108618;-81
2022/08/23 06:54:37;;;;;;;13.30;9.90;;;;;;;23.02;83.60;100028.27;129954;1271;108872;-81
2022/08/23 06:58:05;;;;;;;16.40;9.90;;;;;;;23.03;83.36;100033.89;129885;1271;108735;-81
2022/08/23 07:01:26;;;;;;;13.10;9.10;;;;;;;23.05;83.46;100038.55;129959;1272;107693;-82
2022/08/23 07:04:52;;;;;;;11.00;8.50;;;;;;;22.99;83.09;100043.45;129919;1273;108753;-81
2022/08/23 07:08:27;;;;;;;10.90;8.70;;;;;;;22.89;83.63;100042.55;129841;1271;108774;-81
2022/08/23 07:11:34;;;;;;;13.50;8.50;;;;;;;22.92;83.51;100039.23;129970;1272;109229;-81
2022/08/23 07:14:40;;;;;;;12.30;9.20;;;;;;;22.91;83.57;100040.13;129908;1271;108759;-81
2022/08/23 07:17:46;;;;;;;12.40;9.20;;;;;;;22.83;83.69;100033.38;129923;1271;108764;-81
2022/08/23 07:20:57;;;;;;;12.40;8.60;;;;;;;22.71;83.86;100032.36;129914;1271;108755;-81
2022/08/23 07:24:03;;;;;;;11.10;8.90;;;;;;;22.71;84.09;100034.10;129958;1271;109668;-82
2022/08/23 07:27:09;;;;;;;11.10;9.10;;;;;;;22.79;84.10;100034.96;129898;1272;108909;-82
2022/08/23 07:30:33;;;;;;;12.70;8.90;;;;;;;22.95;83.82;100033.42;130474;1271;108923;-82
2022/08/23 07:33:40;;;;;;;12.90;8.40;;;;;;;23.08;83.78;100035.50;129945;1271;108818;-82
2022/08/23 07:36:52;;;;;;;12.40;8.20;;;;;;;23.04;83.78;100035.36;129981;1271;108663;-82
2022/08/23 07:39:57;;;;;;;8.40;7.30;;;;;;;23.07;83.56;100031.02;130038;1271;106818;-82
2022/08/23 07:43:04;;;;;;;11.80;7.70;;;;;;;23.17;83.52;100029.55;129890;1271;108755;-82
2022/08/23 07:46:11;;;;;;;10.40;8.10;;;;;;;23.22;83.30;100025.66;129941;1271;109010;-81
2022/08/23 07:49:17;;;;;;;11.40;8.00;;;;;;;23.23;83.29;100023.93;129922;1272;108218;-80
2022/08/23 07:52:25;;;;;;;11.60;7.50;;;;;;;23.23;83.45;100022.25;129915;1271;108770;-81
2022/08/23 07:55:31;;;;;;;11.50;7.30;;;;;;;23.24;83.62;100026.34;130176;1271;108837;-85
2022/08/23 07:58:46;;;;;;;10.20;7.30;;;;;;;23.34;83.32;100025.24;130168;1271;109017;-83
2022/08/23 08:02:10;;;;;;;10.60;7.40;;;;;;;23.44;83.27;100026.25;130102;1271;109153;-83
2022/08/23 08:05:16;;;;;;;12.70;8.10;;;;;;;23.48;83.03;100025.52;130144;1271;108961;-83
2022/08/23 08:08:23;;;;;;;10.50;7.80;;;;;;;23.50;83.00;100022.91;129994;1271;109246;-83
2022/08/23 08:11:31;;;;;;;10.60;7.80;;;;;;;23.49;82.88;100022.30;130059;1271;108847;-82
2022/08/23 08:14:38;;;;;;;9.70;7.00;;;;;;;23.33;83.03;100028.21;130042;1271;109094;-82
2022/08/23 08:17:46;;;;;;;9.30;7.20;;;;;;;23.34;83.09;100032.59;130056;1271;108821;-82
2022/08/23 08:20:52;;;;;;;10.90;7.30;;;;;;;23.49;83.06;100031.23;130149;1271;108843;-84
2022/08/23 08:24:23;;;;;;;10.00;8.10;;;;;;;23.61;82.60;100024.27;130145;1270;108722;-82
2022/08/23 08:27:33;;;;;;;10.70;7.80;;;;;;;23.70;82.43;100031.18;130085;1271;108804;-83
2022/08/23 08:30:39;;;;;;;9.90;7.20;;;;;;;23.82;82.53;100033.20;130051;1271;108852;-82
2022/08/23 08:33:46;;;;;;;10.70;7.40;;;;;;;24.07;82.44;100034.63;129920;1271;108836;-82
2022/08/23 08:36:55;;;;;;;9.20;6.60;;;;;;;24.17;82.07;100034.23;130229;1271;108679;-82
2022/08/23 08:40:04;;;;;;;12.10;7.60;;;;;;;24.23;82.07;100040.77;130002;1274;109189;-82
2022/08/23 08:43:30;;;;;;;9.50;7.70;;;;;;;24.23;81.69;100041.65;129988;1274;107686;-84
2022/08/23 08:46:44;;;;;;;9.20;7.30;;;;;;;24.17;81.98;100046.84;130100;1274;108945;-83
2022/08/23 08:49:55;;;;;;;9.80;6.90;;;;;;;24.37;81.87;100046.98;130260;1272;107718;-83
2022/08/23 08:53:02;;;;;;;;;;;;;;;24.52;80.96;100047.40;130133;1273;108945;-86
2022/08/23 08:56:29;;;;;;;10.90;6.80;;;;;;;24.49;80.73;100048.92;130190;1273;108769;-86
2022/08/23 08:59:50;;;;;;;9.10;6.50;;;;;;;24.37;80.68;100051.06;130130;1271;108833;-83
2022/08/23 09:02:58;;;;;;;6.90;6.20;;;;;;;24.31;80.69;100047.26;130310;1271;108912;-84
2022/08/23 09:06:14;;;;;;;7.10;5.90;;;;;;;24.41;80.72;100054.34;130061;1271;108664;-84
2022/08/23 09:09:35;;;;;;;7.80;5.40;;;;;;;24.53;80.14;100055.19;130061;1271;108842;-84
2022/08/23 09:12:51;;;;;;;9.50;6.00;;;;;;;24.60;79.89;100052.20;130137;1271;108296;-86
2022/08/23 09:16:03;;;;;;;9.10;6.20;;;;;;;24.57;79.82;100052.88;130155;1271;109002;-84
2022/08/23 09:19:10;;;;;;;9.30;6.40;;;;;;;24.63;80.02;100050.01;130080;1271;108929;-85
2022/08/23 09:22:24;;;;;;;9.60;6.50;;;;;;;24.67;79.68;100047.16;130074;1271;108666;-85
2022/08/23 09:25:30;;;;;;;10.00;6.30;;;;;;;24.75;79.30;100043.95;130038;1271;108932;-86
2022/08/23 09:29:00;;;;;;;7.60;6.30;;;;;;;24.87;78.90;100037.29;130165;1271;109942;-84
2022/08/23 09:32:26;;;;;;;8.40;6.30;;;;;;;24.92;78.78;100038.77;130224;1274;108978;-83
2022/08/23 09:35:31;;;;;;;10.90;6.80;;;;;;;25.18;78.39;100037.56;130015;1274;108736;-84
2022/08/23 09:38:53;;;;;;;9.20;6.10;;;;;;;25.34;77.66;100034.92;130175;1274;108819;-86
2022/08/23 09:42:00;;;;;;;11.20;6.60;;;;;;;25.52;78.18;100032.28;130093;1274;108706;-86
2022/08/23 09:45:23;;;;;;;9.70;7.00;;;;;;;25.76;77.61;100031.36;130169;1274;108664;-84
2022/08/23 09:48:39;;;;;;;8.40;6.60;;;;;;;25.79;76.79;100032.64;130037;1274;108495;-86
2022/08/23 09:51:47;;;;;;;9.80;6.40;;;;;;;25.83;76.81;100026.62;129978;1274;108869;-86
2022/08/23 09:55:01;;;;;;;11.10;6.60;;;;;;;25.95;76.15;100032.13;129999;1274;108708;-83
2022/08/23 09:58:17;;;;;;;9.90;7.20;;;;;;;25.99;76.65;100033.30;129986;1274;107694;-83
2022/08/23 10:01:26;;;;;;;9.40;7.10;;;;;;;26.08;76.52;100036.10;130066;1274;108769;-84
2022/08/23 10:04:47;;;;;;;10.80;7.50;;;;;;;26.18;76.73;100036.83;130009;1274;108739;-85
2022/08/23 10:07:59;;;;;;;11.30;7.10;;;;;;;26.23;75.60;100039.72;130198;1274;106876;-84
2022/08/23 10:11:07;;;;;;;;;;;;;;;26.17;75.97;100039.89;130168;1271;107386;-85
2022/08/23 10:14:16;;;;;;;11.20;6.40;;;;;;;26.31;76.28;100039.81;130061;1271;108889;-85
2022/08/23 10:17:33;;;;;;;10.00;7.00;;;;;;;26.40;74.87;100035.56;130123;1271;108825;-83
2022/08/23 10:20:46;;;;;;;11.60;6.70;;;;;;;26.26;75.00;100032.46;130136;1271;108645;-83
2022/08/23 10:24:11;;;;;;;9.50;7.00;;;;;;;26.32;75.52;100032.33;130233;1271;108760;-83
2022/08/23 10:30:58;;;;;;;11.10;6.80;;;;;;;26.30;74.79;100026.41;130198;1271;107736;-83
2022/08/23 10:34:32;;;;;;;11.40;7.00;;;;;;;26.37;74.28;100024.38;130092;1271;108828;-83
2022/08/23 10:37:57;;;;;;;9.60;6.70;;;;;;;26.41;74.31;100024.25;130277;1271;108801;-83
2022/08/23 10:41:16;;;;;;;12.60;6.70;;;;;;;26.52;74.51;100023.01;130125;1271;108785;-83
2022/08/23 10:44:31;;;;;;;9.40;6.50;;;;;;;26.78;73.99;100026.13;130242;1271;108831;-83
2022/08/23 10:47:45;;;;;;;11.90;6.40;;;;;;;26.94;73.70;100027.79;130166;1271;108629;-84
2022/08/23 10:50:56;;;;;;;11.90;6.50;;;;;;;27.11;73.21;100029.23;130082;1271;108696;-81
2022/08/23 10:54:06;;;;;;;10.40;6.50;;;;;;;27.17;73.17;100024.70;130057;1271;108950;-82
2022/08/23 10:57:15;;;;;;;10.20;6.20;;;;;;;27.29;73.33;100019.44;130164;1271;108591;-81
2022/08/23 11:00:28;;;;;;;14.40;6.40;;;;;;;27.33;72.62;100019.45;130034;1274;110082;-81
2022/08/23 11:03:37;;;;;;;10.90;7.10;;;;;;;27.37;73.10;100020.56;130059;1274;107670;-83
2022/08/23 11:06:47;;;;;;;10.30;6.80;;;;;;;27.40;72.66;100027.30;130053;1274;109999;-82
2022/08/23 11:10:08;;;;;;;11.50;6.90;;;;;;;27.37;72.14;100032.08;130171;1271;108676;-82
2022/08/23 11:13:24;;;;;;;13.40;7.10;;;;;;;27.26;72.40;100040.69;129960;1271;108744;-81
2022/08/23 11:16:34;;;;;;;9.00;6.80;;;;;;;27.10;72.41;100048.71;130040;1271;108870;-82
2022/08/23 11:19:52;;;;;;;11.70;7.90;;;;;;;26.98;72.36;100051.57;129995;1271;108842;-81
2022/08/23 11:23:16;;;;;;;10.70;6.70;;;;;;;26.76;72.78;100055.63;130218;1271;108720;-82
2022/08/23 11:27:04;;;;;;;8.70;6.30;;;;;;;26.54;73.16;100061.05;130172;1271;108752;-82
2022/08/23 11:30:43;;;;;;;9.80;6.90;;;;;;;26.35;73.28;100061.73;129421;1277;108730;-82
2022/08/23 11:33:58;;;;;;;7.90;6.40;;;;;;;26.20;73.26;100068.47;129538;1271;108907;-84
2022/08/23 11:37:27;;;;;;;12.40;7.00;;;;;;;26.05;73.29;100064.84;130192;1271;108758;-84
2022/08/23 11:40:43;;;;;;;9.20;7.00;;;;;;;25.93;73.66;100070.84;130118;1271;108809;-85
2022/08/23 11:44:12;;;;;;;10.60;6.90;;;;;;;25.83;73.63;100071.45;130245;1271;108649;-83
2022/08/23 11:47:30;;;;;;;8.60;6.70;;;;;;;25.73;73.76;100072.77;130448;1271;108959;-85
2022/08/23 11:50:46;;;;;;;8.00;6.30;;;;;;;25.62;74.00;100074.03;130530;1271;108756;-84
2022/08/23 11:54:18;;;;;;;11.50;7.00;;;;;;;25.52;74.22;100077.09;130136;1271;108836;-82
2022/08/23 11:57:29;;;;;;;;;;;;;;;25.39;74.58;100068.20;130331;1271;108674;-83
2022/08/23 12:00:54;;;;;;;9.30;6.40;;;;;;;25.86;74.11;100058.69;130055;1271;108800;-82
2022/08/23 12:04:08;;;;;;;9.50;6.70;;;;;;;25.99;73.32;100061.06;130074;1274;108869;-83
2022/08/23 12:07:14;;;;;;;9.70;6.50;;;;;;;26.05;73.69;100062.20;129970;1274;108569;-83
2022/08/23 12:10:45;;;;;;;8.90;6.00;;;;;;;26.15;73.55;100063.83;129999;1274;109014;-82
2022/08/23 12:13:57;;;;;;;7.20;6.30;;;;;;;26.48;73.36;100060.80;130078;1274;108872;-83
2022/08/23 12:17:05;;;;;;;9.40;8.00;;;;;;;26.86;72.64;100058.79;130106;1274;108881;-81
2022/08/23 12:20:20;;;;;;;12.50;8.10;;;;;;;27.02;71.67;100057.66;130111;1273;108950;-84
2022/08/23 12:23:25;;;;;;;10.80;7.80;;;;;;;27.02;71.60;100060.84;130286;1272;108653;-83
2022/08/23 12:26:39;;;;;;;8.20;7.00;;;;;;;26.88;71.23;100064.92;129992;1274;108822;-82
2022/08/23 12:29:57;;;;;;;8.80;6.70;;;;;;;26.80;72.17;100064.78;130106;1271;108821;-82
2022/08/23 12:33:11;;;;;;;9.50;6.40;;;;;;;26.90;72.13;100064.06;130066;1271;109176;-83
2022/08/23 12:36:21;;;;;;;11.20;7.60;;;;;;;26.98;72.26;100058.26;130127;1271;108797;-83
2022/08/23 12:39:31;;;;;;;10.60;7.60;;;;;;;27.02;72.24;100054.66;130115;1271;108825;-84
2022/08/23 12:42:39;;;;;;;12.50;9.00;;;;;;;26.96;71.88;100050.20;130108;1271;108565;-83
2022/08/23 12:45:48;;;;;;;14.20;8.90;;;;;;;26.76;71.44;100050.09;130115;1271;108716;-83
2022/08/23 12:48:54;;;;;;;14.10;7.80;;;;;;;26.59;72.15;100040.40;130141;1271;109319;-83
2022/08/23 12:52:08;;;;;;;12.80;7.60;;;;;;;26.47;72.51;100041.56;130081;1271;108658;-83
2022/08/23 12:55:17;;;;;;;12.50;7.30;;;;;;;26.40;72.81;100036.33;130069;1271;108782;-83
2022/08/23 12:58:31;;;;;;;11.40;7.10;;;;;;;26.41;73.12;100032.23;130291;1271;108752;-84
2022/08/23 13:01:40;;;;;;;10.80;7.90;;;;;;;26.37;73.40;100037.08;130251;1271;108716;-83
2022/08/23 13:04:46;;;;;;;10.10;6.30;;;;;;;26.30;73.47;100028.92;130081;1271;108712;-83
2022/08/23 13:07:52;;;;;;;9.10;6.70;;;;;;;26.34;73.48;100026.60;130209;1271;108734;-83
2022/08/23 13:10:57;;;;;;;8.20;6.00;;;;;;;26.37;73.44;100020.27;130153;1271;109337;-85
2022/08/23 13:14:23;;;;;;;7.30;4.90;;;;;;;26.35;72.94;100016.86;130226;1271;108847;-88
2022/08/23 13:17:38;;;;;;;6.60;4.70;;;;;;;26.22;72.74;100001.86;130162;1271;108993;-89
2022/08/23 13:20:43;;;;;;;7.50;5.20;;;;;;;26.18;72.72;99987.02;130124;1271;108489;-92
2022/08/23 13:23:50;;;;;;;7.00;4.30;;;;;;;26.32;72.23;99974.56;130119;1271;109748;-89
2022/08/23 13:27:13;;;;;;;7.30;4.90;;;;;;;26.35;71.66;99978.73;130145;1271;108685;-88
2022/08/23 13:30:25;;;;;;;6.80;4.40;;;;;;;26.37;71.88;99988.49;130210;1271;108674;-90
2022/08/23 13:33:29;;;;;;;;;;;;;;;26.52;71.32;99996.34;130235;1271;107761;-91
2022/08/23 13:36:35;;;;;;;7.80;4.80;;;;;;;26.62;70.61;100007.38;130264;1271;107920;-87
2022/08/23 13:39:47;;;;;;;8.00;4.90;;;;;;;26.63;70.67;100017.29;130334;1271;107610;-88
2022/08/23 13:42:56;;;;;;;7.80;4.40;;;;;;;26.76;70.76;100022.88;129987;1274;107793;-85
2022/08/23 13:46:12;;;;;;;6.70;5.20;;;;;;;26.96;69.95;100027.80;130110;1271;108209;-86
2022/08/23 13:49:22;;;;;;;7.70;4.50;;;;;;;27.00;69.83;100029.50;130079;1271;107691;-87
2022/08/23 13:52:27;;;;;;;5.80;4.20;;;;;;;27.11;69.39;100027.80;130145;1272;107677;-86
2022/08/23 13:55:39;;;;;;;7.40;4.50;;;;;;;27.10;68.48;100042.90;130154;1274;107812;-75
2022/08/23 13:58:57;;;;;;;9.60;4.30;;;;;;;27.16;68.24;100057.45;130019;1271;108697;-74
2022/08/23 14:02:07;;;;;;;6.70;3.80;;;;;;;27.07;68.05;100074.27;130076;1271;108715;-76
2022/08/23 14:05:13;;;;;;;6.20;3.40;;;;;;;26.81;69.67;100082.59;129958;1274;108943;-75
2022/08/23 14:08:19;;;;;;;6.50;3.80;;;;;;;26.65;69.79;100084.89;129962;1271;108874;-75
2022/08/23 14:11:24;;;;;;;7.10;4.00;;;;;;;26.37;70.28;100082.80;129987;1271;108471;-75
2022/08/23 14:14:33;;;;;;;6.30;4.60;;;;;;;26.20;70.21;100084.10;130027;1271;107755;-74
2022/08/23 14:17:42;;;;;;;8.40;5.00;;;;;;;26.21;70.88;100073.45;130042;1271;108619;-77
2022/08/23 14:20:48;;;;;;;10.40;4.80;;;;;;;26.21;70.49;100066.44;129961;1271;108975;-74
2022/08/23 14:23:54;;;;;;;7.70;4.20;;;;;;;26.11;70.76;100066.09;130027;1271;108981;-74
2022/08/23 14:27:00;;;;;;;9.20;4.10;;;;;;;26.04;70.90;100080.36;130086;1271;108673;-75
2022/08/23 14:30:07;;;;;;;5.90;3.90;;;;;;;26.01;70.25;100091.98;130192;1271;108595;-75
2022/08/23 14:33:13;;;;;;;4.90;3.60;;;;;;;26.02;70.61;100103.69;129935;1274;108705;-75
2022/08/23 14:36:20;;;;;;;7.60;3.40;;;;;;;26.04;69.79;100094.79;129936;1274;108681;-73
2022/08/23 14:39:25;;;;;;;10.40;3.70;;;;;;;25.79;70.90;100074.14;129900;1274;108721;-73
2022/08/23 14:42:31;;;;;;;6.60;3.60;;;;;;;25.54;72.12;100057.05;130029;1274;108733;-75
2022/08/23 14:45:37;;;;;;;7.20;3.60;;;;;;;25.46;72.54;100054.84;129975;1274;108590;-75
2022/08/23 14:48:43;;;;;;;7.30;3.60;;;;;;;25.46;73.03;100053.91;129889;1274;108447;-75
2022/08/23 14:51:50;;;;;;;9.20;3.90;;;;;;;25.46;73.24;100052.49;129961;1271;108742;-75
2022/08/23 14:54:55;;;;;;;5.30;4.10;;;;;;;25.43;73.33;100063.77;129983;1271;107265;-75
2022/08/23 14:58:01;;;;;;;6.00;4.40;;;;;;;25.55;72.96;100079.46;130116;1271;108755;-75
2022/08/23 15:01:08;;;;;;;5.30;4.00;;;;;;;25.66;72.64;100078.48;130082;1274;108500;-76
2022/08/23 15:04:19;;;;;;;7.30;4.10;;;;;;;25.72;73.30;100066.09;129963;1274;108756;-75